createdAt,value
2023-06-12T00:14:52.836Z,100.00
2023-06-12T00:29:54.559Z,100.00
2023-06-12T00:44:56.278Z,100.00
2023-06-12T00:59:58.003Z,100.00
2023-06-12T01:14:59.678Z,100.00
2023-06-12T01:30:27.963Z,100.00
2023-06-12T01:45:29.632Z,100.00
2023-06-12T02:00:31.420Z,100.00
2023-06-12T02:15:33.096Z,100.00
2023-06-12T02:30:34.729Z,100.00
2023-06-12T02:45:36.392Z,100.00
2023-06-12T03:00:38.116Z,100.00
2023-06-12T03:15:39.895Z,100.00
2023-06-12T03:30:41.562Z,100.00
2023-06-12T03:45:43.315Z,100.00
2023-06-12T04:00:49.011Z,100.00
2023-06-12T04:15:51.353Z,100.00
2023-06-12T04:30:53.092Z,100.00
2023-06-12T04:45:57.828Z,100.00
2023-06-12T05:01:02.009Z,100.00
2023-06-12T05:16:03.811Z,100.00
2023-06-12T05:31:06.601Z,100.00
2023-06-12T05:46:08.691Z,100.00
2023-06-12T06:01:12.862Z,100.00
2023-06-12T06:16:14.678Z,100.00
2023-06-12T06:31:16.519Z,100.00
2023-06-12T06:46:18.291Z,100.00
2023-06-12T07:01:20.030Z,100.00
2023-06-12T07:16:21.895Z,99.56
2023-06-12T07:31:23.714Z,96.38
2023-06-12T07:46:25.450Z,90.09
2023-06-12T08:01:27.492Z,87.34
2023-06-12T08:16:29.246Z,94.73
2023-06-12T08:31:31.156Z,100.00
2023-06-12T08:46:33.205Z,100.00
2023-06-12T09:01:35.707Z,100.00
2023-06-12T09:16:37.447Z,100.00
2023-06-12T09:31:41.954Z,100.00
2023-06-12T09:46:43.771Z,100.00
2023-06-12T10:01:54.630Z,100.00
2023-06-12T10:16:59.081Z,100.00
2023-06-12T10:32:08.857Z,100.00
2023-06-12T10:47:22.501Z,100.00
2023-06-12T11:02:24.645Z,100.00
2023-06-12T11:17:26.559Z,100.00
2023-06-12T11:32:28.332Z,100.00
2023-06-12T12:02:41.113Z,100.00
2023-06-12T12:17:44.114Z,96.18
2023-06-12T12:32:47.999Z,95.80
2023-06-12T12:47:49.909Z,100.00
2023-06-12T13:02:51.866Z,100.00
2023-06-12T13:17:54.453Z,100.00
2023-06-12T13:32:56.354Z,100.00
2023-06-12T13:47:58.170Z,100.00
2023-06-12T14:03:00.868Z,100.00
2023-06-12T14:18:04.357Z,100.00
2023-06-12T14:33:06.388Z,100.00
2023-06-12T14:48:08.123Z,100.00
2023-06-12T15:03:10.001Z,100.00
2023-06-12T15:18:12.067Z,100.00
2023-06-12T15:33:13.907Z,100.00
2023-06-12T15:48:15.893Z,100.00
2023-06-12T16:03:17.780Z,100.00
2023-06-12T16:18:19.571Z,100.00
2023-06-12T16:33:21.290Z,100.00
2023-06-12T16:48:23.016Z,100.00
2023-06-12T17:03:24.775Z,100.00
2023-06-12T17:18:27.031Z,100.00
2023-06-12T17:33:28.961Z,100.00
2023-06-12T17:48:30.967Z,100.00
2023-06-12T18:03:32.814Z,100.00
2023-06-12T18:18:34.653Z,100.00
2023-06-12T18:33:36.331Z,100.00
2023-06-12T18:48:38.063Z,100.00
2023-06-12T19:03:39.822Z,100.00
2023-06-12T19:18:41.578Z,100.00
2023-06-12T19:33:43.254Z,100.00
2023-06-12T19:48:44.974Z,100.00
2023-06-12T20:03:47.541Z,100.00
2023-06-12T20:18:49.239Z,100.00
2023-06-12T20:33:50.981Z,100.00
2023-06-12T20:48:52.950Z,100.00
2023-06-12T21:03:54.758Z,100.00
2023-06-12T21:18:56.726Z,100.00
2023-06-12T21:33:59.756Z,100.00
2023-06-12T21:49:01.454Z,100.00
2023-06-12T22:04:03.764Z,100.00
2023-06-12T22:19:08.336Z,100.00
2023-06-12T22:34:11.305Z,100.00
2023-06-12T22:49:17.228Z,100.00
2023-06-12T23:04:22.293Z,100.00
2023-06-12T23:19:26.878Z,100.00
2023-06-12T23:34:28.830Z,100.00
2023-06-12T23:49:31.704Z,100.00
